Olympia — WTT6483 — position and weather

sailwx.info

Track history (hours):
 
Tides and Currents Weather Stations Pressure Air Temp Water Temp Dewpoint Dewpoint Depression Visibility Wind Speed Wind Dir Waves Ship Positions

Olympia

Owner: SALMON FALLS TRAWLER INC, SOUTH BERWICK, ME. More information available from US FCC via Universal Licensing System and Coast Guard Vessel Documentation Center.

Last reported at 2018-Jul-16 11:57 UTC. Time now 2018-Jul-21 22:36 UTC.
Position N 41°48' W 071°24'.

Length 27 m.

Type: Fishing. MMSI: 367135520.

Date/timePositionNaut miles runAvg speedWind from/ knotsBaromVisibWave heightAir tempDewpointWater temp
2018-Jul-16 11:57N 41°48' W 071°24'3 6.7
2018-Jul-16 11:30N 41°45' W 071°23'4 7.3
2018-Jul-16 10:56N 41°42' W 071°19'40 3.6
2018-Jul-15 23:59N 41°53' W 070°28'14 6.7
2018-Jul-15 21:56N 42°06' W 070°36'4 6.7
2018-Jul-15 21:19N 42°10' W 070°38'2 6.9
2018-Jul-15 20:57N 42°12' W 070°39'3 6.8
2018-Jul-15 20:30N 42°15' W 070°40'3 6.9
2018-Jul-15 20:00N 42°18' W 070°43'4 7.1
2018-Jul-15 19:30N 42°20' W 070°47'3 7.0
2018-Jul-15 19:00N 42°22' W 070°50'3 6.5
2018-Jul-15 18:30N 42°22' W 070°55'3 6.8
2018-Jul-15 18:00N 42°20' W 070°58'3 6.0
2018-Jul-15 17:30N 42°21' W 071°02'0 0.8
2018-Jul-15 17:00N 42°21' W 071°02'0 0.0
2018-Jul-15 16:30N 42°21' W 071°02'0 0.0
2018-Jul-15 16:00N 42°21' W 071°02'  
Track history (hours):
 
Tides and Currents Weather Stations Pressure Air Temp Water Temp Dewpoint Dewpoint Depression Visibility Wind Speed Wind Dir Waves Ship Positions

Olympia

Owner: SALMON FALLS TRAWLER INC, SOUTH BERWICK, ME. More information available from US FCC via Universal Licensing System and Coast Guard Vessel Documentation Center.

Last reported at 2018-Jul-16 11:57 UTC. Time now 2018-Jul-21 22:36 UTC.
Position N 41°48' W 071°24'.

Length 27 m.

Type: Fishing. MMSI: 367135520.

Date/timePositionNaut miles runAvg speedWind from/ knotsBaromVisibWave heightAir tempDewpointWater temp
2018-Jul-16 11:57N 41°48' W 071°24'3 6.7
2018-Jul-16 11:30N 41°45' W 071°23'4 7.3
2018-Jul-16 10:56N 41°42' W 071°19'40 3.6
2018-Jul-15 23:59N 41°53' W 070°28'14 6.7
2018-Jul-15 21:56N 42°06' W 070°36'4 6.7
2018-Jul-15 21:19N 42°10' W 070°38'2 6.9
2018-Jul-15 20:57N 42°12' W 070°39'3 6.8
2018-Jul-15 20:30N 42°15' W 070°40'3 6.9
2018-Jul-15 20:00N 42°18' W 070°43'4 7.1
2018-Jul-15 19:30N 42°20' W 070°47'3 7.0
2018-Jul-15 19:00N 42°22' W 070°50'3 6.5
2018-Jul-15 18:30N 42°22' W 070°55'3 6.8
2018-Jul-15 18:00N 42°20' W 070°58'3 6.0
2018-Jul-15 17:30N 42°21' W 071°02'0 0.8
2018-Jul-15 17:00N 42°21' W 071°02'0 0.0
2018-Jul-15 16:30N 42°21' W 071°02'0 0.0
2018-Jul-15 16:00N 42°21' W 071°02'  

Dump ship's entire track history